createdAt,value
2018-12-19T00:01:42.899Z,-0.65
2018-12-19T00:04:14.181Z,-0.53
2018-12-19T00:06:45.763Z,-0.44
2018-12-19T00:09:18.399Z,-0.38
2018-12-19T00:11:49.346Z,-0.43
2018-12-19T00:14:21.397Z,-0.40
2018-12-19T00:16:52.254Z,-0.40
2018-12-19T00:19:29.020Z,-0.38
2018-12-19T00:22:03.477Z,-0.34
2018-12-19T00:24:38.164Z,-0.29
2018-12-19T00:27:09.228Z,-0.27
2018-12-19T00:29:39.952Z,-0.18
2018-12-19T00:32:10.718Z,-0.21
2018-12-19T00:34:42.142Z,-0.15
2018-12-19T00:37:12.971Z,-0.06
2018-12-19T00:39:43.912Z,0.02
2018-12-19T00:42:14.760Z,0.10
2018-12-19T00:44:45.716Z,0.14
2018-12-19T00:47:17.006Z,0.22
2018-12-19T00:49:47.862Z,0.31
2018-12-19T00:52:19.518Z,0.41
2018-12-19T00:54:50.375Z,0.45
2018-12-19T00:57:21.479Z,0.56
2018-12-19T00:59:52.869Z,0.60
2018-12-19T01:02:25.027Z,0.64
2018-12-19T01:04:55.933Z,0.66
2018-12-19T01:07:27.102Z,0.77
2018-12-19T01:09:58.344Z,0.82
2018-12-19T01:12:29.265Z,0.83
2018-12-19T01:15:01.702Z,0.86
2018-12-19T01:17:33.637Z,0.92
2018-12-19T01:20:04.812Z,0.94
2018-12-19T01:22:35.649Z,0.94
2018-12-19T01:25:06.548Z,0.86
2018-12-19T01:27:40.772Z,0.85
2018-12-19T01:30:13.475Z,0.99
2018-12-19T01:32:44.936Z,0.92
2018-12-19T01:35:16.482Z,0.90
2018-12-19T01:37:47.183Z,0.96
2018-12-19T01:40:18.050Z,0.97
2018-12-19T01:42:50.399Z,0.94
2018-12-19T01:45:21.204Z,0.92
2018-12-19T01:47:52.772Z,0.92
2018-12-19T01:50:24.278Z,0.94
2018-12-19T01:52:55.439Z,0.93
2018-12-19T01:55:26.687Z,1.05
2018-12-19T01:57:57.742Z,0.90
2018-12-19T02:00:33.449Z,0.84
2018-12-19T02:03:09.063Z,0.84
2018-12-19T02:05:43.191Z,0.90
2018-12-19T02:08:14.918Z,0.94
2018-12-19T02:10:54.893Z,0.98
2018-12-19T02:13:31.538Z,0.86
2018-12-19T02:16:03.115Z,0.89
2018-12-19T02:18:35.123Z,1.04
2018-12-19T02:21:07.323Z,1.07
2018-12-19T02:23:38.099Z,0.99
2018-12-19T02:26:10.107Z,1.03
2018-12-19T02:28:42.782Z,1.01
2018-12-19T02:31:13.962Z,1.07
2018-12-19T02:33:44.749Z,1.01
2018-12-19T02:36:19.623Z,0.96
2018-12-19T02:38:53.838Z,0.96
2018-12-19T02:41:27.838Z,0.92
2018-12-19T02:43:58.743Z,0.99
2018-12-19T02:46:30.907Z,0.97
2018-12-19T02:49:01.794Z,0.91
2018-12-19T02:51:33.249Z,0.97
2018-12-19T02:54:09.721Z,1.04
2018-12-19T02:56:46.291Z,1.03
2018-12-19T02:59:23.246Z,0.95
2018-12-19T03:01:57.411Z,0.96
2018-12-19T03:04:30.160Z,0.95
2018-12-19T03:07:04.019Z,0.91
2018-12-19T03:09:42.909Z,0.95
2018-12-19T03:12:14.756Z,1.04
2018-12-19T03:14:45.697Z,1.11
2018-12-19T03:17:16.736Z,1.13
2018-12-19T03:19:51.051Z,1.10
2018-12-19T03:22:26.695Z,1.13
2018-12-19T03:24:58.739Z,1.14
2018-12-19T03:27:29.891Z,1.26
2018-12-19T03:30:00.725Z,1.50
2018-12-19T03:32:31.567Z,1.47
2018-12-19T03:35:02.399Z,1.43
2018-12-19T03:37:33.153Z,1.49
2018-12-19T03:40:03.971Z,1.48
2018-12-19T03:42:35.095Z,1.60
2018-12-19T03:45:06.131Z,1.65
2018-12-19T03:47:36.895Z,1.65
2018-12-19T03:50:07.923Z,1.58
2018-12-19T03:52:38.782Z,1.53
2018-12-19T03:55:10.919Z,1.44
2018-12-19T03:57:44.103Z,1.51
2018-12-19T04:00:14.935Z,1.62
2018-12-19T04:02:46.036Z,1.64
2018-12-19T04:05:16.929Z,1.66
2018-12-19T04:07:47.731Z,1.65
2018-12-19T04:10:18.528Z,1.65
2018-12-19T04:12:53.667Z,1.70
2018-12-19T04:15:24.516Z,1.68
2018-12-19T04:17:55.419Z,1.81
2018-12-19T04:20:26.239Z,1.76
2018-12-19T04:23:13.539Z,1.71
2018-12-19T04:28:41.647Z,1.61
2018-12-19T04:31:13.053Z,1.57
2018-12-19T04:33:47.174Z,1.51
2018-12-19T04:36:21.287Z,1.48
2018-12-19T04:38:55.310Z,1.51
2018-12-19T04:41:29.719Z,1.61
2018-12-19T04:44:04.675Z,1.63
2018-12-19T04:46:40.646Z,1.55
2018-12-19T04:52:36.482Z,1.59
2018-12-19T04:55:25.468Z,1.69
2018-12-19T04:57:56.433Z,1.76
2018-12-19T05:00:32.057Z,1.42
2018-12-19T05:03:03.776Z,1.85
2018-12-19T05:05:34.694Z,1.89
2018-12-19T05:08:09.861Z,1.97
2018-12-19T05:10:46.664Z,1.98
2018-12-19T05:13:19.666Z,1.95
2018-12-19T05:15:50.494Z,1.91
2018-12-19T05:18:26.926Z,1.94
2018-12-19T05:21:01.436Z,1.92
2018-12-19T05:23:35.989Z,1.91
2018-12-19T05:26:11.094Z,1.88
2018-12-19T05:28:46.357Z,2.02
2018-12-19T05:31:22.969Z,1.92
2018-12-19T05:33:59.923Z,1.99
2018-12-19T05:36:34.831Z,2.05
2018-12-19T05:39:09.388Z,2.01
2018-12-19T05:41:41.964Z,2.03
2018-12-19T05:44:28.723Z,2.11
2018-12-19T05:47:05.202Z,2.06
2018-12-19T05:49:41.786Z,2.13
2018-12-19T05:52:28.745Z,2.15
2018-12-19T05:55:05.040Z,2.09
2018-12-19T05:57:38.640Z,2.24
2018-12-19T06:00:14.947Z,2.24
2018-12-19T06:02:52.421Z,2.23
2018-12-19T06:05:27.491Z,2.25
2018-12-19T06:08:02.089Z,2.20
2018-12-19T06:10:37.088Z,2.21
2018-12-19T06:13:12.203Z,2.26
2018-12-19T06:15:47.218Z,2.22
2018-12-19T06:18:21.530Z,2.28
2018-12-19T06:20:57.284Z,2.26
2018-12-19T06:23:31.529Z,2.26
2018-12-19T06:26:10.459Z,2.21
2018-12-19T06:28:44.410Z,2.16
2018-12-19T06:31:18.608Z,2.20
2018-12-19T06:33:53.117Z,2.21
2018-12-19T06:36:24.873Z,2.12
2018-12-19T06:38:56.902Z,2.08
2018-12-19T06:41:31.370Z,1.97
2018-12-19T06:44:06.470Z,1.93
2018-12-19T06:46:37.695Z,1.88
2018-12-19T06:49:09.554Z,1.85
2018-12-19T06:51:44.597Z,1.85
2018-12-19T06:54:17.463Z,1.78
2018-12-19T06:56:54.713Z,1.78
2018-12-19T06:59:29.130Z,1.68
2018-12-19T07:02:04.935Z,1.69
2018-12-19T07:04:41.402Z,1.74
2018-12-19T07:07:15.962Z,1.75
2018-12-19T07:09:47.132Z,1.77
2018-12-19T07:12:18.457Z,1.88
2018-12-19T07:14:57.575Z,1.81
2018-12-19T07:17:28.627Z,1.83
2018-12-19T07:20:01.214Z,1.85
2018-12-19T07:22:32.187Z,1.88
2018-12-19T07:25:03.374Z,1.83
2018-12-19T07:27:35.631Z,1.94
2018-12-19T07:30:06.986Z,1.95
2018-12-19T07:32:37.920Z,1.89
2018-12-19T07:35:09.000Z,1.91
2018-12-19T07:37:41.234Z,1.94
2018-12-19T07:40:12.479Z,2.09
2018-12-19T07:42:43.855Z,2.12
2018-12-19T07:45:14.940Z,2.06
2018-12-19T07:47:46.250Z,2.21
2018-12-19T07:50:23.244Z,2.21
2018-12-19T07:53:00.013Z,2.19
2018-12-19T07:55:35.531Z,2.18
2018-12-19T07:58:07.644Z,2.25
2018-12-19T08:00:41.618Z,2.23
2018-12-19T08:03:14.179Z,2.27
2018-12-19T08:05:56.958Z,2.44
2018-12-19T08:08:31.715Z,2.46
2018-12-19T08:11:05.728Z,2.42
2018-12-19T08:13:40.277Z,2.41
2018-12-19T08:16:16.955Z,2.45
2018-12-19T08:18:51.972Z,2.60
2018-12-19T08:21:27.748Z,2.59
2018-12-19T08:24:04.157Z,2.65
2018-12-19T08:26:40.372Z,2.67
2018-12-19T08:29:13.922Z,2.67
2018-12-19T08:31:45.180Z,2.71
2018-12-19T08:34:23.753Z,2.66
2018-12-19T08:37:04.440Z,2.70
2018-12-19T08:39:36.357Z,2.66
2018-12-19T08:42:08.222Z,2.71
2018-12-19T08:44:46.330Z,2.75
2018-12-19T08:47:21.427Z,2.81
2018-12-19T08:49:56.506Z,2.80
2018-12-19T08:52:32.201Z,2.76
2018-12-19T08:55:08.710Z,2.76
2018-12-19T08:57:42.704Z,2.78
2018-12-19T09:00:18.098Z,2.75
2018-12-19T09:02:51.631Z,2.82
2018-12-19T09:05:28.612Z,2.78
2018-12-19T09:08:02.871Z,2.87
2018-12-19T09:10:34.368Z,2.93
2018-12-19T09:13:07.851Z,2.97
2018-12-19T09:15:49.027Z,2.91
2018-12-19T09:18:22.994Z,2.92
2018-12-19T09:20:57.479Z,2.90
2018-12-19T09:23:31.632Z,2.98
2018-12-19T09:26:06.766Z,3.03
2018-12-19T09:28:37.800Z,3.00
2018-12-19T09:31:09.604Z,3.07
2018-12-19T09:33:40.662Z,3.06
2018-12-19T09:36:13.385Z,3.16
2018-12-19T09:38:44.683Z,3.20
2018-12-19T09:41:15.886Z,3.21
2018-12-19T09:43:46.889Z,3.25
2018-12-19T09:46:23.080Z,3.23
2018-12-19T09:49:03.799Z,3.30
2018-12-19T09:51:40.253Z,3.35
2018-12-19T09:54:15.591Z,3.43
2018-12-19T09:56:47.368Z,3.49
2018-12-19T09:59:18.654Z,3.51
2018-12-19T10:01:49.975Z,3.49
2018-12-19T10:04:20.900Z,3.47
2018-12-19T10:06:51.809Z,3.48
2018-12-19T10:09:22.947Z,3.58
2018-12-19T10:11:53.903Z,3.58
2018-12-19T10:14:24.825Z,3.60
2018-12-19T10:16:57.114Z,3.61
2018-12-19T10:19:30.745Z,3.67
2018-12-19T10:22:03.531Z,3.70
2018-12-19T10:24:44.907Z,3.69
2018-12-19T10:27:21.580Z,3.74
2018-12-19T10:29:58.241Z,3.81
2018-12-19T10:32:37.157Z,3.81
2018-12-19T10:35:13.821Z,3.79
2018-12-19T10:37:48.337Z,3.81
2018-12-19T10:40:22.561Z,3.80
2018-12-19T10:42:58.880Z,3.86
2018-12-19T10:45:33.143Z,3.88
2018-12-19T10:48:09.714Z,4.00
2018-12-19T10:50:42.532Z,3.95
2018-12-19T10:53:17.192Z,4.09
2018-12-19T10:55:53.586Z,4.03
2018-12-19T10:58:29.576Z,4.03
2018-12-19T11:01:03.730Z,4.12
2018-12-19T11:06:35.906Z,4.13
2018-12-19T11:09:12.351Z,4.16
2018-12-19T11:11:47.919Z,4.24
2018-12-19T11:14:22.224Z,4.22
2018-12-19T11:16:59.157Z,4.30
2018-12-19T11:19:35.046Z,4.33
2018-12-19T11:22:14.087Z,4.36
2018-12-19T11:24:49.146Z,4.44
2018-12-19T11:27:21.626Z,4.46
2018-12-19T11:30:00.306Z,4.44
2018-12-19T11:32:35.392Z,4.55
2018-12-19T11:35:11.357Z,4.50
2018-12-19T11:37:56.948Z,4.54
2018-12-19T11:40:33.988Z,4.57
2018-12-19T11:43:10.236Z,4.65
2018-12-19T11:45:44.958Z,4.65
2018-12-19T11:48:16.825Z,4.67
2018-12-19T11:51:05.346Z,4.67
2018-12-19T11:53:44.696Z,4.65
2018-12-19T11:56:27.661Z,4.67
2018-12-19T11:59:03.211Z,4.76
2018-12-19T12:01:41.562Z,4.85
2018-12-19T12:04:19.826Z,4.84
2018-12-19T12:07:00.692Z,4.81
2018-12-19T12:09:32.107Z,4.99
2018-12-19T12:12:04.643Z,4.97
2018-12-19T12:14:35.567Z,5.02
2018-12-19T12:17:08.793Z,5.06
2018-12-19T12:19:42.548Z,5.05
2018-12-19T12:22:14.292Z,5.11
2018-12-19T12:24:45.920Z,5.19
2018-12-19T12:27:17.011Z,5.24
2018-12-19T12:29:48.060Z,5.24
2018-12-19T12:32:19.088Z,5.20
2018-12-19T12:34:50.439Z,5.17
2018-12-19T12:37:29.979Z,5.24
2018-12-19T12:40:07.913Z,5.28
2018-12-19T12:42:39.759Z,5.30
2018-12-19T12:45:11.243Z,5.33
2018-12-19T12:47:42.611Z,5.34
2018-12-19T12:50:13.866Z,5.35
2018-12-19T12:52:46.223Z,5.37
2018-12-19T12:55:25.650Z,5.40
2018-12-19T12:58:02.216Z,5.45
2018-12-19T13:00:40.237Z,5.54
2018-12-19T13:03:28.786Z,5.54
2018-12-19T13:06:11.759Z,5.56
2018-12-19T13:08:48.986Z,5.60
2018-12-19T13:11:31.230Z,5.72
2018-12-19T13:14:05.920Z,5.85
2018-12-19T13:16:38.487Z,5.84
2018-12-19T13:19:11.038Z,5.86
2018-12-19T13:21:43.148Z,5.88
2018-12-19T13:24:15.439Z,5.87
2018-12-19T13:26:47.326Z,5.88
2018-12-19T13:29:23.225Z,5.94
2018-12-19T13:32:00.266Z,5.95
2018-12-19T13:34:34.969Z,5.83
2018-12-19T13:37:06.337Z,5.80
2018-12-19T13:39:37.324Z,5.73
2018-12-19T13:42:13.475Z,5.67
2018-12-19T13:45:03.023Z,5.67
2018-12-19T13:47:34.670Z,5.63
2018-12-19T13:50:10.597Z,5.53
2018-12-19T13:52:41.595Z,5.60
2018-12-19T13:55:12.843Z,5.48
2018-12-19T13:57:47.012Z,5.38
2018-12-19T14:00:19.963Z,5.32
2018-12-19T14:05:51.943Z,5.30
2018-12-19T14:08:24.610Z,5.33
2018-12-19T14:10:58.718Z,5.41
2018-12-19T14:13:30.027Z,5.30
2018-12-19T14:16:01.044Z,5.31
2018-12-19T14:18:31.950Z,5.36
2018-12-19T14:21:06.854Z,5.29
2018-12-19T14:23:40.974Z,5.02
2018-12-19T14:26:11.959Z,5.31
2018-12-19T14:28:46.882Z,5.27
2018-12-19T14:31:26.779Z,5.27
2018-12-19T14:34:02.244Z,5.24
2018-12-19T14:36:33.121Z,5.26
2018-12-19T14:39:16.030Z,5.23
2018-12-19T14:41:47.218Z,5.35
2018-12-19T14:44:18.442Z,5.27
2018-12-19T14:46:51.748Z,5.33
2018-12-19T14:49:25.793Z,5.28
2018-12-19T14:51:57.079Z,5.26
2018-12-19T14:54:29.542Z,5.19
2018-12-19T14:57:05.890Z,5.18
2018-12-19T14:59:40.530Z,5.21
2018-12-19T15:02:15.809Z,5.29
2018-12-19T15:04:50.460Z,5.16
2018-12-19T15:07:27.747Z,5.13
2018-12-19T15:10:04.250Z,5.14
2018-12-19T15:12:41.132Z,5.17
2018-12-19T15:15:21.361Z,5.14
2018-12-19T15:17:57.546Z,5.19
2018-12-19T15:20:34.293Z,5.20
2018-12-19T15:23:10.341Z,5.25
2018-12-19T15:25:53.031Z,5.21
2018-12-19T15:31:17.086Z,5.20
2018-12-19T15:33:53.123Z,5.12
2018-12-19T15:36:28.494Z,5.12
2018-12-19T15:39:08.163Z,5.15
2018-12-19T15:41:45.224Z,5.10
2018-12-19T15:46:03.918Z,5.15
2018-12-19T15:48:39.953Z,5.08
2018-12-19T15:51:16.307Z,5.05
2018-12-19T15:53:53.920Z,5.07
2018-12-19T15:56:29.137Z,5.15
2018-12-19T15:59:03.868Z,5.12
2018-12-19T16:01:37.574Z,5.21
2018-12-19T16:04:09.778Z,5.21
2018-12-19T16:06:44.307Z,5.23
2018-12-19T16:09:18.824Z,5.23
2018-12-19T16:11:54.977Z,5.14
2018-12-19T16:14:31.500Z,5.21
2018-12-19T16:17:08.791Z,5.08
2018-12-19T16:19:43.588Z,5.03
2018-12-19T16:22:18.866Z,5.00
2018-12-19T16:24:57.808Z,4.97
2018-12-19T16:27:43.164Z,4.90
2018-12-19T16:30:35.752Z,4.93
2018-12-19T16:33:12.923Z,4.96
2018-12-19T16:35:50.950Z,4.93
2018-12-19T16:38:28.445Z,4.89
2018-12-19T16:43:46.981Z,4.91
2018-12-19T16:46:23.841Z,5.06
2018-12-19T16:51:52.784Z,5.06
2018-12-19T16:54:28.753Z,5.01
2018-12-19T16:57:11.782Z,4.95
2018-12-19T16:59:48.964Z,4.95
2018-12-19T17:02:26.556Z,4.93
2018-12-19T17:05:09.803Z,4.92
2018-12-19T17:10:30.503Z,4.95
2018-12-19T17:13:14.652Z,5.02
2018-12-19T17:15:48.830Z,5.03
2018-12-19T17:18:22.112Z,4.99
2018-12-19T17:20:57.163Z,4.97
2018-12-19T17:23:36.710Z,4.91
2018-12-19T17:26:25.509Z,4.88
2018-12-19T17:29:01.243Z,4.89
2018-12-19T17:31:42.981Z,4.87
2018-12-19T17:34:14.253Z,4.88
2018-12-19T17:36:45.851Z,4.87
2018-12-19T17:39:18.402Z,4.92
2018-12-19T17:41:51.886Z,5.00
2018-12-19T17:44:24.839Z,4.97
2018-12-19T17:47:03.756Z,4.97
2018-12-19T17:49:40.838Z,5.00
2018-12-19T17:52:18.531Z,5.00
2018-12-19T17:54:57.547Z,5.03
2018-12-19T17:57:35.510Z,5.05
2018-12-19T18:08:31.616Z,5.14
2018-12-19T18:11:06.913Z,5.17
2018-12-19T18:16:37.070Z,5.06
2018-12-19T18:19:13.239Z,5.09
2018-12-19T18:21:56.550Z,5.07
2018-12-19T18:24:39.078Z,5.03
2018-12-19T18:27:16.251Z,5.07
2018-12-19T18:29:52.037Z,5.14
2018-12-19T18:32:29.132Z,5.16
2018-12-19T18:35:05.974Z,5.19
2018-12-19T18:37:41.388Z,5.25
2018-12-19T18:40:16.557Z,5.23
2018-12-19T18:42:49.706Z,5.23
2018-12-19T18:45:26.406Z,5.30
2018-12-19T18:48:02.976Z,5.30
2018-12-19T18:50:39.205Z,5.35
2018-12-19T18:53:13.994Z,5.34
2018-12-19T18:55:54.102Z,5.41
2018-12-19T18:58:29.814Z,5.34
2018-12-19T19:04:01.006Z,5.41
2018-12-19T19:06:49.338Z,5.37
2018-12-19T19:09:27.393Z,5.23
2018-12-19T19:15:08.681Z,5.09
2018-12-19T19:17:56.436Z,5.06
2018-12-19T19:20:39.947Z,5.16
2018-12-19T19:28:34.064Z,5.23
2018-12-19T19:41:52.660Z,5.17
2018-12-19T19:44:42.112Z,5.29
2018-12-19T19:47:21.453Z,5.19
2018-12-19T19:50:00.562Z,5.33
2018-12-19T19:52:48.945Z,5.48
2018-12-19T19:55:38.763Z,5.71
2018-12-19T19:58:22.212Z,5.79
2018-12-19T20:01:08.945Z,5.73
2018-12-19T20:06:37.140Z,5.64
2018-12-19T20:09:28.775Z,5.67
2018-12-19T20:23:37.048Z,5.55
2018-12-19T20:26:24.136Z,5.48
2018-12-19T20:29:01.498Z,5.52
2018-12-19T20:31:41.349Z,5.68
2018-12-19T20:34:24.837Z,5.91
2018-12-19T20:37:01.720Z,6.00
2018-12-19T20:39:46.090Z,5.95
2018-12-19T20:42:28.554Z,6.01
2018-12-19T20:51:05.088Z,5.75
2018-12-19T20:53:43.550Z,5.74
2018-12-19T21:01:08.117Z,5.74
2018-12-19T21:03:54.117Z,5.74
2018-12-19T21:09:15.977Z,5.82
2018-12-19T21:14:58.691Z,5.64
2018-12-19T21:17:45.397Z,5.56
2018-12-19T21:20:32.672Z,5.50
2018-12-19T21:23:13.692Z,5.45
2018-12-19T21:25:54.765Z,5.45
2018-12-19T21:28:33.418Z,5.46
2018-12-19T21:31:08.442Z,5.45
2018-12-19T21:33:43.719Z,5.45
2018-12-19T21:36:22.412Z,5.44
2018-12-19T21:38:56.651Z,5.53
2018-12-19T21:48:44.501Z,5.57
2018-12-19T21:51:22.101Z,5.33
2018-12-19T21:53:58.764Z,5.41
2018-12-19T21:56:34.373Z,5.39
2018-12-19T21:59:11.603Z,5.43
2018-12-19T22:01:48.134Z,5.40
2018-12-19T22:04:40.499Z,5.34
2018-12-19T22:07:23.696Z,5.40
2018-12-19T22:16:13.874Z,5.26
2018-12-19T22:18:51.315Z,5.27
2018-12-19T22:21:28.515Z,5.39
2018-12-19T22:24:02.036Z,5.43
2018-12-19T22:26:36.846Z,5.30
2018-12-19T22:29:11.035Z,5.41
2018-12-19T22:31:46.728Z,5.36
2018-12-19T22:34:20.740Z,5.38
2018-12-19T22:36:56.189Z,5.34
2018-12-19T22:39:30.843Z,5.24
2018-12-19T22:42:08.327Z,5.32
2018-12-19T22:44:44.918Z,5.29
2018-12-19T22:47:22.108Z,5.28
2018-12-19T22:49:56.979Z,5.36
2018-12-19T22:52:34.809Z,5.44
2018-12-19T22:55:09.618Z,5.44
2018-12-19T22:57:42.417Z,5.52
2018-12-19T23:00:18.520Z,5.44
2018-12-19T23:02:57.794Z,5.52
2018-12-19T23:05:39.002Z,5.47
2018-12-19T23:08:14.203Z,5.44
2018-12-19T23:10:50.095Z,5.45
2018-12-19T23:19:15.296Z,5.38
2018-12-19T23:21:55.576Z,5.30
2018-12-19T23:24:32.397Z,5.30
2018-12-19T23:27:08.326Z,5.37
2018-12-19T23:29:47.218Z,5.32
2018-12-19T23:32:36.784Z,5.23
2018-12-19T23:35:19.045Z,5.16
2018-12-19T23:37:54.155Z,5.13
2018-12-19T23:40:30.496Z,5.15
2018-12-19T23:43:05.314Z,5.20
2018-12-19T23:45:42.462Z,5.14
2018-12-19T23:48:22.420Z,5.21
2018-12-19T23:50:57.731Z,5.25
2018-12-19T23:53:35.264Z,5.25
2018-12-19T23:56:10.348Z,5.25
2018-12-19T23:58:54.605Z,5.20
